EDT,Max TemperatureF,Mean TemperatureF,Min TemperatureF,Max Dew PointF,MeanDew PointF,Min DewpointF,Max Humidity, Mean Humidity, Min Humidity, Max Sea Level PressureIn, Mean Sea Level PressureIn, Min Sea Level PressureIn, Max VisibilityMiles, Mean VisibilityMiles, Min VisibilityMiles, Max Wind SpeedMPH, Mean Wind SpeedMPH, Max Gust SpeedMPH,PrecipitationIn, CloudCover, Events, WindDirDegrees
2013-7-1,67,58,48,56,47,40,91,66,37,30.17,30.11,30.02,10,10,10,21,6,28,0.00,0,,12
2013-7-2,70,61,52,52,49,43,79,61,38,30.14,30.12,30.09,10,10,2,14,7,17,0.00,3,,28
2013-7-3,73,61,49,63,55,47,93,75,55,30.14,30.10,30.06,10,10,7,8,4,,0.00,2,Rain,86
2013-7-4,81,70,59,65,61,55,99,74,40,30.10,30.07,30.05,10,8,0,16,5,23,0.00,2,Fog-Rain,216
2013-7-5,83,71,59,65,61,56,95,69,40,30.10,30.06,30.01,10,9,5,15,5,18,0.00,0,,198
2013-7-6,86,74,62,67,64,60,93,69,47,30.09,30.04,29.97,10,9,5,14,6,22,0.00,0,,194
2013-7-7,85,74,63,69,65,55,98,73,35,30.00,29.96,29.92,10,9,0,12,4,17,0.00,2,Fog,199
2013-7-8,75,72,68,72,68,67,97,92,81,30.00,29.97,29.94,10,6,2,12,4,21,0.20,7,Rain,182
2013-7-9,79,74,68,70,68,67,99,88,69,29.97,29.92,29.80,10,7,1,9,3,,0.11,6,Rain,218
2013-7-10,81,70,59,70,61,52,96,68,43,29.93,29.79,29.70,10,9,2,23,11,30,0.02,3,,272
2013-7-11,69,60,52,55,52,49,91,71,53,30.10,30.04,29.93,10,10,10,20,9,24,0.01,1,,358
2013-7-12,72,59,46,57,51,46,96,71,44,30.21,30.17,30.11,10,10,10,10,2,,0.00,0,,78
2013-7-13,80,64,47,62,55,47,99,70,41,30.23,30.21,30.17,10,10,0,12,3,18,0.00,1,Fog,140
2013-7-14,82,69,56,66,61,54,97,73,49,30.28,30.26,30.23,10,10,10,12,3,,0.00,0,,125
2013-7-15,87,75,63,71,68,63,96,77,46,30.30,30.28,30.25,10,10,7,10,3,,0.00,2,,109
2013-7-16,91,80,68,75,71,67,96,75,50,30.29,30.24,30.19,10,9,4,14,3,18,0.10,2,,183
2013-7-17,97,84,72,73,68,61,93,61,30,30.22,30.17,30.10,10,10,7,13,6,20,0.00,2,,277
2013-7-18,87,78,70,74,71,67,95,78,60,30.14,30.02,29.85,10,10,3,15,4,25,0.16,1,Rain,183
2013-7-19,93,82,70,72,68,59,96,65,34,29.85,29.71,29.63,10,10,7,32,12,38,0.07,2,Rain,240
2013-7-20,81,70,57,68,58,47,97,70,40,29.98,29.84,29.74,10,10,7,17,7,25,0.00,4,,319
2013-7-21,71,60,48,59,54,46,96,76,63,30.05,30.01,29.98,10,10,10,14,4,21,0.00,2,,78
2013-7-22,82,72,63,68,62,57,86,68,50,29.98,29.85,29.71,10,10,10,16,7,24,0.02,3,Rain,166
2013-7-23,76,68,58,67,57,47,93,67,41,29.90,29.73,29.62,10,10,10,21,10,29,0.00,6,Rain,297
2013-7-24,68,58,47,50,47,45,92,67,47,30.06,30.01,29.90,10,10,10,12,7,17,0.00,1,,7
2013-7-25,75,60,44,59,50,41,93,66,37,30.12,30.08,30.05,10,10,10,14,4,36,0.00,0,,173
2013-7-26,77,68,59,64,60,55,97,76,52,30.06,29.99,29.90,10,10,2,16,7,25,0.32,5,Rain,196
2013-7-27,73,66,59,64,62,55,97,89,64,29.89,29.79,29.73,10,8,2,16,4,21,0.40,7,Rain,243
2013-7-28,67,60,54,63,54,50,97,85,53,30.03,29.82,29.75,10,9,0,14,7,17,0.38,7,Fog-Rain,223
2013-7-29,69,61,53,56,55,52,98,81,57,30.16,30.02,29.90,10,10,10,10,5,17,0.00,7,,279
2013-7-30,70,61,52,58,54,50,96,76,48,30.23,30.18,30.14,10,10,10,8,3,,0.00,1,,196
2013-7-31,72,63,54,64,60,52,98,87,64,30.13,30.02,29.89,10,10,3,17,3,24,0.00,6,Rain,207